This is the latest recevied weather packets stored in our database for station/object JF2ZGN-13. If no packets are shown the sender has not sent any weather packets the latest 10 day(s).
| Time | Temp. | Humidity | Pressure | Rain* | Wind** | Luminosity | Snow |
|---|---|---|---|---|---|---|---|
| 1777588911 | 12.22° C | 75% | 899.6 hPa | 66.8 mm | - | - | - |
| 1777588310 | 11.67° C | 75% | 899.2 hPa | 63.25 mm | - | - | - |
| 1777587710 | 11.11° C | 72% | 899.3 hPa | 58.17 mm | - | - | - |
| 1777587109 | 11.11° C | 73% | 899.7 hPa | 53.34 mm | - | - | - |
| 1777586509 | 10° C | 74% | 899.8 hPa | 48.26 mm | - | - | - |
| 1777585908 | 9.44° C | 72% | 899.8 hPa | 43.43 mm | - | - | - |
| 1777585308 | 8.89° C | 71% | 900 hPa | 39.88 mm | - | - | - |
| 1777584708 | 8.33° C | 73% | 900.5 hPa | 37.08 mm | - | - | - |
| 1777584107 | 8.33° C | 72% | 900.9 hPa | 35.05 mm | - | - | - |
| 1777583507 | 8.33° C | 72% | 901 hPa | 33.53 mm | - | - | - |
| 1777582906 | 8.33° C | 72% | 900.9 hPa | 32.26 mm | - | - | - |
| 1777582305 | 8.33° C | 71% | 900.8 hPa | 30.73 mm | - | - | - |
| 1777581705 | 8.33° C | 72% | 901.1 hPa | 29.21 mm | - | - | - |
| 1777581105 | 8.89° C | 71% | 901.3 hPa | 27.69 mm | - | - | - |
| 1777580505 | 8.89° C | 72% | 901.5 hPa | 26.42 mm | - | - | - |
| 1777579904 | 8.33° C | 71% | 901.5 hPa | 25.65 mm | - | - | - |
| 1777579303 | 8.33° C | 73% | 901.4 hPa | 24.89 mm | - | - | - |
| 1777578703 | 8.33° C | 72% | 901.7 hPa | 24.13 mm | - | - | - |
| 1777578103 | 8.33° C | 72% | 902.1 hPa | 23.88 mm | - | - | - |
| 1777577502 | 7.78° C | 74% | 902.1 hPa | 23.37 mm | - | - | - |
| 1777576901 | 7.78° C | 71% | 902.8 hPa | 22.1 mm | - | - | - |
| 1777576301 | 7.78° C | 72% | 903.5 hPa | 20.57 mm | - | - | - |
| 1777575701 | 7.78° C | 71% | 903.9 hPa | 18.54 mm | - | - | - |
| 1777575100 | 8.33° C | 70% | 904.1 hPa | 16.51 mm | - | - | - |
| 1777574500 | 8.89° C | 72% | 904.2 hPa | 14.73 mm | - | - | - |
* Rain since midnight (hover to see other rain measurements)
** Current wind speed in m/s (hover to see current wind gust speed)